sensor_id;sensor_type;location;lat;lon;timestamp;P1;durP1;ratioP1;P2;durP2;ratioP2
12892;SDS011;6514;48.606;9.222;2023-07-20T00:02:06;2.70;;;1.33;;
12892;SDS011;6514;48.606;9.222;2023-07-20T00:04:33;3.07;;;1.60;;
12892;SDS011;6514;48.606;9.222;2023-07-20T00:07:01;2.17;;;1.60;;
12892;SDS011;6514;48.606;9.222;2023-07-20T00:09:28;2.10;;;1.50;;
12892;SDS011;6514;48.606;9.222;2023-07-20T00:11:55;1.70;;;1.57;;
12892;SDS011;6514;48.606;9.222;2023-07-20T00:14:22;2.50;;;1.63;;
12892;SDS011;6514;48.606;9.222;2023-07-20T00:16:49;4.03;;;1.30;;
12892;SDS011;6514;48.606;9.222;2023-07-20T00:19:20;1.63;;;1.27;;
12892;SDS011;6514;48.606;9.222;2023-07-20T00:21:48;2.97;;;1.40;;
12892;SDS011;6514;48.606;9.222;2023-07-20T00:24:16;4.80;;;1.47;;
12892;SDS011;6514;48.606;9.222;2023-07-20T00:26:43;1.97;;;1.40;;
12892;SDS011;6514;48.606;9.222;2023-07-20T00:29:10;3.37;;;1.30;;
12892;SDS011;6514;48.606;9.222;2023-07-20T00:31:37;2.37;;;1.50;;
12892;SDS011;6514;48.606;9.222;2023-07-20T00:34:03;2.90;;;1.40;;
12892;SDS011;6514;48.606;9.222;2023-07-20T00:36:30;2.83;;;1.87;;
12892;SDS011;6514;48.606;9.222;2023-07-20T00:38:57;2.63;;;1.60;;
12892;SDS011;6514;48.606;9.222;2023-07-20T00:41:25;2.80;;;1.70;;
12892;SDS011;6514;48.606;9.222;2023-07-20T00:43:54;1.83;;;1.70;;
12892;SDS011;6514;48.606;9.222;2023-07-20T00:46:21;2.37;;;1.37;;
12892;SDS011;6514;48.606;9.222;2023-07-20T00:48:49;3.10;;;1.63;;
12892;SDS011;6514;48.606;9.222;2023-07-20T00:51:16;3.20;;;1.57;;
12892;SDS011;6514;48.606;9.222;2023-07-20T00:53:43;2.53;;;1.63;;
12892;SDS011;6514;48.606;9.222;2023-07-20T00:56:10;2.47;;;1.83;;
12892;SDS011;6514;48.606;9.222;2023-07-20T00:58:38;2.90;;;1.80;;
12892;SDS011;6514;48.606;9.222;2023-07-20T01:01:05;1.70;;;1.50;;
12892;SDS011;6514;48.606;9.222;2023-07-20T01:03:31;1.50;;;1.40;;
12892;SDS011;6514;48.606;9.222;2023-07-20T01:06:00;2.17;;;1.40;;
12892;SDS011;6514;48.606;9.222;2023-07-20T01:08:37;3.00;;;1.63;;
12892;SDS011;6514;48.606;9.222;2023-07-20T01:11:10;2.53;;;1.70;;
12892;SDS011;6514;48.606;9.222;2023-07-20T01:13:44;3.13;;;1.87;;
12892;SDS011;6514;48.606;9.222;2023-07-20T01:16:11;1.57;;;1.40;;
12892;SDS011;6514;48.606;9.222;2023-07-20T01:18:38;2.23;;;1.30;;
12892;SDS011;6514;48.606;9.222;2023-07-20T01:21:06;2.10;;;1.20;;
12892;SDS011;6514;48.606;9.222;2023-07-20T01:29:47;3.57;;;1.73;;
12892;SDS011;6514;48.606;9.222;2023-07-20T01:32:31;3.00;;;1.50;;
12892;SDS011;6514;48.606;9.222;2023-07-20T01:34:58;2.57;;;1.20;;
12892;SDS011;6514;48.606;9.222;2023-07-20T01:37:27;2.67;;;1.60;;
12892;SDS011;6514;48.606;9.222;2023-07-20T01:39:56;1.40;;;1.30;;
12892;SDS011;6514;48.606;9.222;2023-07-20T01:42:24;1.63;;;1.53;;
12892;SDS011;6514;48.606;9.222;2023-07-20T01:44:52;2.63;;;1.50;;
12892;SDS011;6514;48.606;9.222;2023-07-20T01:47:19;2.50;;;1.60;;
12892;SDS011;6514;48.606;9.222;2023-07-20T01:49:47;5.43;;;1.67;;
12892;SDS011;6514;48.606;9.222;2023-07-20T01:52:14;2.50;;;1.60;;
12892;SDS011;6514;48.606;9.222;2023-07-20T01:54:41;2.10;;;1.60;;
12892;SDS011;6514;48.606;9.222;2023-07-20T01:57:07;2.00;;;1.57;;
12892;SDS011;6514;48.606;9.222;2023-07-20T01:59:34;3.33;;;1.40;;
12892;SDS011;6514;48.606;9.222;2023-07-20T02:02:01;3.50;;;1.63;;
12892;SDS011;6514;48.606;9.222;2023-07-20T02:04:28;2.33;;;1.73;;
12892;SDS011;6514;48.606;9.222;2023-07-20T02:06:56;2.93;;;1.40;;
12892;SDS011;6514;48.606;9.222;2023-07-20T02:09:23;4.67;;;1.60;;
12892;SDS011;6514;48.606;9.222;2023-07-20T02:11:49;3.27;;;1.60;;
12892;SDS011;6514;48.606;9.222;2023-07-20T02:14:16;1.70;;;1.60;;
12892;SDS011;6514;48.606;9.222;2023-07-20T02:16:43;2.83;;;1.50;;
12892;SDS011;6514;48.606;9.222;2023-07-20T02:19:10;4.13;;;2.00;;
12892;SDS011;6514;48.606;9.222;2023-07-20T02:21:36;2.23;;;1.50;;
12892;SDS011;6514;48.606;9.222;2023-07-20T02:24:05;2.37;;;1.77;;
12892;SDS011;6514;48.606;9.222;2023-07-20T02:26:32;2.77;;;1.40;;
12892;SDS011;6514;48.606;9.222;2023-07-20T02:28:59;2.37;;;1.60;;
12892;SDS011;6514;48.606;9.222;2023-07-20T02:31:25;1.70;;;1.60;;
12892;SDS011;6514;48.606;9.222;2023-07-20T02:33:52;1.90;;;1.70;;
12892;SDS011;6514;48.606;9.222;2023-07-20T02:36:19;1.50;;;1.40;;
12892;SDS011;6514;48.606;9.222;2023-07-20T02:38:46;2.10;;;1.40;;
12892;SDS011;6514;48.606;9.222;2023-07-20T02:41:14;2.90;;;1.77;;
12892;SDS011;6514;48.606;9.222;2023-07-20T02:43:41;2.10;;;1.70;;
12892;SDS011;6514;48.606;9.222;2023-07-20T02:46:08;1.60;;;1.30;;
12892;SDS011;6514;48.606;9.222;2023-07-20T02:48:34;2.13;;;1.50;;
12892;SDS011;6514;48.606;9.222;2023-07-20T02:51:01;1.93;;;1.53;;
12892;SDS011;6514;48.606;9.222;2023-07-20T02:53:28;2.20;;;1.47;;
12892;SDS011;6514;48.606;9.222;2023-07-20T02:55:55;2.50;;;2.30;;
12892;SDS011;6514;48.606;9.222;2023-07-20T02:58:23;2.07;;;1.50;;
12892;SDS011;6514;48.606;9.222;2023-07-20T03:00:50;2.27;;;1.57;;
12892;SDS011;6514;48.606;9.222;2023-07-20T03:03:16;2.47;;;1.70;;
12892;SDS011;6514;48.606;9.222;2023-07-20T03:05:43;3.90;;;2.10;;
12892;SDS011;6514;48.606;9.222;2023-07-20T03:08:10;2.63;;;1.90;;
12892;SDS011;6514;48.606;9.222;2023-07-20T03:10:40;2.17;;;1.40;;
12892;SDS011;6514;48.606;9.222;2023-07-20T03:13:07;4.23;;;1.73;;
12892;SDS011;6514;48.606;9.222;2023-07-20T03:15:35;2.03;;;1.47;;
12892;SDS011;6514;48.606;9.222;2023-07-20T03:18:02;1.63;;;1.50;;
12892;SDS011;6514;48.606;9.222;2023-07-20T03:20:29;2.73;;;1.77;;
12892;SDS011;6514;48.606;9.222;2023-07-20T03:22:57;2.87;;;1.80;;
12892;SDS011;6514;48.606;9.222;2023-07-20T03:25:24;3.93;;;1.70;;
12892;SDS011;6514;48.606;9.222;2023-07-20T03:27:50;3.80;;;2.27;;
12892;SDS011;6514;48.606;9.222;2023-07-20T03:30:17;2.63;;;1.63;;
12892;SDS011;6514;48.606;9.222;2023-07-20T03:32:45;2.33;;;1.57;;
12892;SDS011;6514;48.606;9.222;2023-07-20T03:35:12;2.93;;;1.70;;
12892;SDS011;6514;48.606;9.222;2023-07-20T03:37:40;3.97;;;1.83;;
12892;SDS011;6514;48.606;9.222;2023-07-20T03:40:08;2.33;;;1.57;;
12892;SDS011;6514;48.606;9.222;2023-07-20T03:42:35;1.83;;;1.50;;
12892;SDS011;6514;48.606;9.222;2023-07-20T03:45:04;2.30;;;1.50;;
12892;SDS011;6514;48.606;9.222;2023-07-20T03:47:31;2.53;;;1.40;;
12892;SDS011;6514;48.606;9.222;2023-07-20T03:49:59;5.33;;;1.67;;
12892;SDS011;6514;48.606;9.222;2023-07-20T03:52:26;3.33;;;1.37;;
12892;SDS011;6514;48.606;9.222;2023-07-20T03:54:53;2.07;;;1.50;;
12892;SDS011;6514;48.606;9.222;2023-07-20T03:57:20;2.97;;;1.67;;
12892;SDS011;6514;48.606;9.222;2023-07-20T03:59:47;2.40;;;1.20;;
12892;SDS011;6514;48.606;9.222;2023-07-20T04:02:14;2.40;;;1.50;;
12892;SDS011;6514;48.606;9.222;2023-07-20T04:04:41;2.03;;;1.50;;
12892;SDS011;6514;48.606;9.222;2023-07-20T04:07:09;2.23;;;1.57;;
12892;SDS011;6514;48.606;9.222;2023-07-20T04:09:36;2.77;;;1.30;;
12892;SDS011;6514;48.606;9.222;2023-07-20T04:12:03;1.83;;;1.50;;
12892;SDS011;6514;48.606;9.222;2023-07-20T04:14:30;2.60;;;1.33;;
12892;SDS011;6514;48.606;9.222;2023-07-20T04:16:57;1.60;;;1.30;;
12892;SDS011;6514;48.606;9.222;2023-07-20T04:19:25;2.80;;;1.60;;
12892;SDS011;6514;48.606;9.222;2023-07-20T04:21:52;3.20;;;1.47;;
12892;SDS011;6514;48.606;9.222;2023-07-20T04:24:20;1.67;;;1.37;;
12892;SDS011;6514;48.606;9.222;2023-07-20T04:26:47;2.53;;;1.40;;
12892;SDS011;6514;48.606;9.222;2023-07-20T04:29:13;1.53;;;1.37;;
12892;SDS011;6514;48.606;9.222;2023-07-20T04:31:40;3.30;;;1.77;;
12892;SDS011;6514;48.606;9.222;2023-07-20T04:34:07;4.83;;;1.70;;
12892;SDS011;6514;48.606;9.222;2023-07-20T04:36:34;2.80;;;1.53;;
12892;SDS011;6514;48.606;9.222;2023-07-20T04:39:00;1.83;;;1.40;;
12892;SDS011;6514;48.606;9.222;2023-07-20T04:41:29;4.07;;;1.50;;
12892;SDS011;6514;48.606;9.222;2023-07-20T04:43:56;1.70;;;1.30;;
12892;SDS011;6514;48.606;9.222;2023-07-20T04:46:23;1.43;;;1.20;;
12892;SDS011;6514;48.606;9.222;2023-07-20T04:48:50;3.93;;;1.47;;
12892;SDS011;6514;48.606;9.222;2023-07-20T04:51:16;2.43;;;1.57;;
12892;SDS011;6514;48.606;9.222;2023-07-20T04:53:45;1.63;;;1.30;;
12892;SDS011;6514;48.606;9.222;2023-07-20T04:56:12;1.80;;;1.23;;
12892;SDS011;6514;48.606;9.222;2023-07-20T04:58:41;3.87;;;1.23;;
12892;SDS011;6514;48.606;9.222;2023-07-20T05:01:07;2.33;;;1.57;;
12892;SDS011;6514;48.606;9.222;2023-07-20T05:03:34;1.67;;;1.20;;
12892;SDS011;6514;48.606;9.222;2023-07-20T05:06:01;2.13;;;1.30;;
12892;SDS011;6514;48.606;9.222;2023-07-20T05:08:28;3.43;;;1.20;;
12892;SDS011;6514;48.606;9.222;2023-07-20T05:10:55;1.50;;;1.10;;
12892;SDS011;6514;48.606;9.222;2023-07-20T05:13:21;1.80;;;1.57;;
12892;SDS011;6514;48.606;9.222;2023-07-20T05:15:52;1.60;;;1.30;;
12892;SDS011;6514;48.606;9.222;2023-07-20T05:18:19;2.43;;;1.40;;
12892;SDS011;6514;48.606;9.222;2023-07-20T05:20:46;2.70;;;1.30;;
12892;SDS011;6514;48.606;9.222;2023-07-20T05:23:13;1.77;;;1.37;;
12892;SDS011;6514;48.606;9.222;2023-07-20T05:25:40;1.43;;;1.23;;
12892;SDS011;6514;48.606;9.222;2023-07-20T05:28:07;1.97;;;1.53;;
12892;SDS011;6514;48.606;9.222;2023-07-20T05:30:34;3.07;;;1.30;;
12892;SDS011;6514;48.606;9.222;2023-07-20T05:33:02;2.97;;;1.37;;
12892;SDS011;6514;48.606;9.222;2023-07-20T05:35:29;4.37;;;1.07;;
12892;SDS011;6514;48.606;9.222;2023-07-20T05:37:56;2.70;;;1.57;;
12892;SDS011;6514;48.606;9.222;2023-07-20T05:40:23;2.00;;;1.27;;
12892;SDS011;6514;48.606;9.222;2023-07-20T05:42:50;1.47;;;1.20;;
12892;SDS011;6514;48.606;9.222;2023-07-20T05:45:18;1.77;;;1.10;;
12892;SDS011;6514;48.606;9.222;2023-07-20T05:47:45;2.00;;;1.30;;
12892;SDS011;6514;48.606;9.222;2023-07-20T05:50:14;1.70;;;1.30;;
12892;SDS011;6514;48.606;9.222;2023-07-20T05:52:41;2.33;;;1.40;;
12892;SDS011;6514;48.606;9.222;2023-07-20T05:55:08;2.10;;;1.10;;
12892;SDS011;6514;48.606;9.222;2023-07-20T05:57:34;3.90;;;1.10;;
12892;SDS011;6514;48.606;9.222;2023-07-20T06:00:05;2.70;;;1.33;;
12892;SDS011;6514;48.606;9.222;2023-07-20T06:02:33;1.77;;;1.30;;
12892;SDS011;6514;48.606;9.222;2023-07-20T06:05:00;2.70;;;1.27;;
12892;SDS011;6514;48.606;9.222;2023-07-20T06:07:28;2.27;;;1.17;;
12892;SDS011;6514;48.606;9.222;2023-07-20T06:09:56;3.57;;;1.40;;
12892;SDS011;6514;48.606;9.222;2023-07-20T06:12:23;3.10;;;1.50;;
12892;SDS011;6514;48.606;9.222;2023-07-20T06:14:50;1.70;;;1.10;;
12892;SDS011;6514;48.606;9.222;2023-07-20T06:17:17;1.30;;;1.20;;
12892;SDS011;6514;48.606;9.222;2023-07-20T06:19:43;2.10;;;1.30;;
12892;SDS011;6514;48.606;9.222;2023-07-20T06:22:10;4.10;;;1.40;;
12892;SDS011;6514;48.606;9.222;2023-07-20T06:24:38;3.00;;;1.80;;
12892;SDS011;6514;48.606;9.222;2023-07-20T06:27:05;1.50;;;1.40;;
12892;SDS011;6514;48.606;9.222;2023-07-20T06:29:32;3.60;;;1.50;;
12892;SDS011;6514;48.606;9.222;2023-07-20T06:31:59;3.50;;;1.27;;
12892;SDS011;6514;48.606;9.222;2023-07-20T06:34:26;2.03;;;1.50;;
12892;SDS011;6514;48.606;9.222;2023-07-20T06:36:52;2.40;;;1.20;;
12892;SDS011;6514;48.606;9.222;2023-07-20T06:39:19;2.67;;;1.50;;
12892;SDS011;6514;48.606;9.222;2023-07-20T06:41:48;1.83;;;1.37;;
12892;SDS011;6514;48.606;9.222;2023-07-20T06:44:14;2.03;;;1.40;;
12892;SDS011;6514;48.606;9.222;2023-07-20T06:46:41;1.83;;;1.40;;
12892;SDS011;6514;48.606;9.222;2023-07-20T06:49:08;2.13;;;1.27;;
12892;SDS011;6514;48.606;9.222;2023-07-20T06:51:35;3.57;;;2.40;;
12892;SDS011;6514;48.606;9.222;2023-07-20T06:54:01;1.43;;;1.27;;
12892;SDS011;6514;48.606;9.222;2023-07-20T06:56:29;2.97;;;1.23;;
12892;SDS011;6514;48.606;9.222;2023-07-20T06:58:57;1.87;;;1.37;;
12892;SDS011;6514;48.606;9.222;2023-07-20T07:01:24;1.53;;;1.13;;
12892;SDS011;6514;48.606;9.222;2023-07-20T07:03:51;2.43;;;1.20;;
12892;SDS011;6514;48.606;9.222;2023-07-20T07:06:18;1.90;;;1.20;;
12892;SDS011;6514;48.606;9.222;2023-07-20T07:08:46;3.10;;;1.20;;
12892;SDS011;6514;48.606;9.222;2023-07-20T07:11:13;2.80;;;1.50;;
12892;SDS011;6514;48.606;9.222;2023-07-20T07:13:39;2.53;;;1.50;;
12892;SDS011;6514;48.606;9.222;2023-07-20T07:16:07;2.93;;;1.23;;
12892;SDS011;6514;48.606;9.222;2023-07-20T07:18:34;1.43;;;1.03;;
12892;SDS011;6514;48.606;9.222;2023-07-20T07:21:01;2.70;;;1.23;;
12892;SDS011;6514;48.606;9.222;2023-07-20T07:23:28;2.23;;;1.40;;
12892;SDS011;6514;48.606;9.222;2023-07-20T07:25:55;3.07;;;1.43;;
12892;SDS011;6514;48.606;9.222;2023-07-20T07:28:21;2.30;;;1.50;;
12892;SDS011;6514;48.606;9.222;2023-07-20T07:30:48;5.13;;;1.70;;
12892;SDS011;6514;48.606;9.222;2023-07-20T07:33:16;4.40;;;1.57;;
12892;SDS011;6514;48.606;9.222;2023-07-20T07:35:43;3.67;;;1.37;;
12892;SDS011;6514;48.606;9.222;2023-07-20T07:38:10;3.40;;;1.53;;
12892;SDS011;6514;48.606;9.222;2023-07-20T07:40:37;1.83;;;1.40;;
12892;SDS011;6514;48.606;9.222;2023-07-20T07:43:03;1.77;;;1.40;;
12892;SDS011;6514;48.606;9.222;2023-07-20T07:45:31;2.77;;;1.50;;
12892;SDS011;6514;48.606;9.222;2023-07-20T07:48:01;3.00;;;1.40;;
12892;SDS011;6514;48.606;9.222;2023-07-20T07:50:30;2.33;;;1.40;;
12892;SDS011;6514;48.606;9.222;2023-07-20T07:52:57;3.17;;;1.50;;
12892;SDS011;6514;48.606;9.222;2023-07-20T07:55:24;2.43;;;1.33;;
12892;SDS011;6514;48.606;9.222;2023-07-20T07:57:51;3.30;;;1.30;;
12892;SDS011;6514;48.606;9.222;2023-07-20T08:00:18;1.43;;;1.33;;
12892;SDS011;6514;48.606;9.222;2023-07-20T08:02:46;2.10;;;1.50;;
12892;SDS011;6514;48.606;9.222;2023-07-20T08:05:14;3.33;;;1.70;;
12892;SDS011;6514;48.606;9.222;2023-07-20T08:07:42;2.03;;;1.60;;
12892;SDS011;6514;48.606;9.222;2023-07-20T08:10:09;1.40;;;1.30;;
12892;SDS011;6514;48.606;9.222;2023-07-20T08:12:36;2.53;;;1.60;;
12892;SDS011;6514;48.606;9.222;2023-07-20T08:15:03;4.20;;;1.50;;
12892;SDS011;6514;48.606;9.222;2023-07-20T08:17:30;2.50;;;1.40;;
12892;SDS011;6514;48.606;9.222;2023-07-20T08:19:57;1.80;;;1.70;;
12892;SDS011;6514;48.606;9.222;2023-07-20T08:22:24;2.83;;;1.67;;
12892;SDS011;6514;48.606;9.222;2023-07-20T08:24:52;2.07;;;1.50;;
12892;SDS011;6514;48.606;9.222;2023-07-20T08:27:19;1.67;;;1.30;;
12892;SDS011;6514;48.606;9.222;2023-07-20T08:29:46;1.97;;;1.50;;
12892;SDS011;6514;48.606;9.222;2023-07-20T08:32:13;3.13;;;1.50;;
12892;SDS011;6514;48.606;9.222;2023-07-20T08:34:39;2.30;;;1.50;;
12892;SDS011;6514;48.606;9.222;2023-07-20T08:37:08;2.33;;;1.53;;
12892;SDS011;6514;48.606;9.222;2023-07-20T08:39:35;1.63;;;1.50;;
12892;SDS011;6514;48.606;9.222;2023-07-20T08:42:03;1.60;;;1.50;;
12892;SDS011;6514;48.606;9.222;2023-07-20T08:44:32;1.60;;;1.40;;
12892;SDS011;6514;48.606;9.222;2023-07-20T08:46:59;1.83;;;1.60;;
12892;SDS011;6514;48.606;9.222;2023-07-20T08:49:28;2.33;;;1.50;;
12892;SDS011;6514;48.606;9.222;2023-07-20T08:51:55;1.70;;;1.60;;
12892;SDS011;6514;48.606;9.222;2023-07-20T08:54:23;1.70;;;1.43;;
12892;SDS011;6514;48.606;9.222;2023-07-20T08:56:54;2.20;;;1.40;;
12892;SDS011;6514;48.606;9.222;2023-07-20T08:59:25;1.40;;;1.00;;
12892;SDS011;6514;48.606;9.222;2023-07-20T09:01:53;1.83;;;1.30;;
12892;SDS011;6514;48.606;9.222;2023-07-20T09:04:21;1.43;;;1.30;;
12892;SDS011;6514;48.606;9.222;2023-07-20T09:06:48;2.60;;;1.53;;
12892;SDS011;6514;48.606;9.222;2023-07-20T09:09:16;2.53;;;1.40;;
12892;SDS011;6514;48.606;9.222;2023-07-20T09:11:42;1.37;;;1.27;;
12892;SDS011;6514;48.606;9.222;2023-07-20T09:14:12;2.00;;;1.27;;
12892;SDS011;6514;48.606;9.222;2023-07-20T09:16:49;1.60;;;1.33;;
12892;SDS011;6514;48.606;9.222;2023-07-20T09:19:18;2.43;;;1.40;;
12892;SDS011;6514;48.606;9.222;2023-07-20T09:21:45;1.90;;;1.20;;
12892;SDS011;6514;48.606;9.222;2023-07-20T09:24:13;2.83;;;1.03;;
12892;SDS011;6514;48.606;9.222;2023-07-20T09:26:40;1.73;;;1.10;;
12892;SDS011;6514;48.606;9.222;2023-07-20T09:29:08;1.10;;;1.00;;
12892;SDS011;6514;48.606;9.222;2023-07-20T09:31:36;2.13;;;1.20;;
12892;SDS011;6514;48.606;9.222;2023-07-20T09:34:05;2.57;;;1.03;;
12892;SDS011;6514;48.606;9.222;2023-07-20T09:36:33;1.60;;;1.10;;
12892;SDS011;6514;48.606;9.222;2023-07-20T09:39:01;2.13;;;1.57;;
12892;SDS011;6514;48.606;9.222;2023-07-20T09:41:29;1.20;;;1.10;;
12892;SDS011;6514;48.606;9.222;2023-07-20T09:43:56;2.07;;;1.50;;
12892;SDS011;6514;48.606;9.222;2023-07-20T09:46:23;1.80;;;1.30;;
12892;SDS011;6514;48.606;9.222;2023-07-20T09:48:52;2.13;;;1.07;;
12892;SDS011;6514;48.606;9.222;2023-07-20T09:51:21;3.63;;;1.13;;
12892;SDS011;6514;48.606;9.222;2023-07-20T09:53:49;1.90;;;1.30;;
12892;SDS011;6514;48.606;9.222;2023-07-20T09:56:19;1.90;;;1.50;;
12892;SDS011;6514;48.606;9.222;2023-07-20T09:58:49;2.83;;;1.27;;
12892;SDS011;6514;48.606;9.222;2023-07-20T10:01:16;1.30;;;1.07;;
12892;SDS011;6514;48.606;9.222;2023-07-20T10:03:46;1.90;;;1.20;;
12892;SDS011;6514;48.606;9.222;2023-07-20T10:06:19;3.23;;;1.10;;
12892;SDS011;6514;48.606;9.222;2023-07-20T10:08:51;1.53;;;1.43;;
12892;SDS011;6514;48.606;9.222;2023-07-20T10:11:20;1.73;;;1.00;;
12892;SDS011;6514;48.606;9.222;2023-07-20T10:13:49;1.10;;;0.90;;
12892;SDS011;6514;48.606;9.222;2023-07-20T10:16:20;1.23;;;1.03;;
12892;SDS011;6514;48.606;9.222;2023-07-20T10:18:51;1.53;;;1.10;;
12892;SDS011;6514;48.606;9.222;2023-07-20T10:21:25;1.93;;;1.03;;
12892;SDS011;6514;48.606;9.222;2023-07-20T10:23:52;2.23;;;1.30;;
12892;SDS011;6514;48.606;9.222;2023-07-20T10:26:20;1.00;;;0.90;;
12892;SDS011;6514;48.606;9.222;2023-07-20T10:28:47;2.30;;;1.00;;
12892;SDS011;6514;48.606;9.222;2023-07-20T10:31:14;1.73;;;1.23;;
12892;SDS011;6514;48.606;9.222;2023-07-20T10:33:42;1.10;;;0.90;;
12892;SDS011;6514;48.606;9.222;2023-07-20T10:36:09;2.30;;;0.87;;
12892;SDS011;6514;48.606;9.222;2023-07-20T10:38:42;2.23;;;1.33;;
12892;SDS011;6514;48.606;9.222;2023-07-20T10:41:18;3.00;;;1.37;;
12892;SDS011;6514;48.606;9.222;2023-07-20T10:43:46;1.53;;;0.93;;
12892;SDS011;6514;48.606;9.222;2023-07-20T10:46:14;1.40;;;1.00;;
12892;SDS011;6514;48.606;9.222;2023-07-20T10:49:01;1.40;;;1.03;;
12892;SDS011;6514;48.606;9.222;2023-07-20T10:51:29;1.87;;;0.73;;
12892;SDS011;6514;48.606;9.222;2023-07-20T10:53:58;1.10;;;1.00;;
12892;SDS011;6514;48.606;9.222;2023-07-20T10:56:28;1.60;;;1.00;;
12892;SDS011;6514;48.606;9.222;2023-07-20T10:58:55;2.50;;;0.87;;
12892;SDS011;6514;48.606;9.222;2023-07-20T11:01:27;2.60;;;0.90;;
12892;SDS011;6514;48.606;9.222;2023-07-20T11:03:57;1.70;;;0.93;;
12892;SDS011;6514;48.606;9.222;2023-07-20T11:06:31;1.63;;;0.60;;
12892;SDS011;6514;48.606;9.222;2023-07-20T11:09:05;1.03;;;0.90;;
12892;SDS011;6514;48.606;9.222;2023-07-20T11:11:36;2.07;;;0.80;;
12892;SDS011;6514;48.606;9.222;2023-07-20T11:14:04;1.00;;;0.70;;
12892;SDS011;6514;48.606;9.222;2023-07-20T11:16:32;1.00;;;0.77;;
12892;SDS011;6514;48.606;9.222;2023-07-20T11:18:59;1.70;;;0.80;;
12892;SDS011;6514;48.606;9.222;2023-07-20T11:21:26;1.17;;;0.90;;
12892;SDS011;6514;48.606;9.222;2023-07-20T11:23:53;1.33;;;1.17;;
12892;SDS011;6514;48.606;9.222;2023-07-20T11:26:22;1.97;;;0.87;;
12892;SDS011;6514;48.606;9.222;2023-07-20T11:28:49;1.10;;;0.90;;
12892;SDS011;6514;48.606;9.222;2023-07-20T11:31:17;1.30;;;0.80;;
12892;SDS011;6514;48.606;9.222;2023-07-20T11:33:43;0.93;;;0.83;;
12892;SDS011;6514;48.606;9.222;2023-07-20T11:36:10;1.40;;;0.90;;
12892;SDS011;6514;48.606;9.222;2023-07-20T11:38:38;0.83;;;0.73;;
12892;SDS011;6514;48.606;9.222;2023-07-20T11:41:06;1.67;;;0.93;;
12892;SDS011;6514;48.606;9.222;2023-07-20T11:43:35;2.07;;;0.87;;
12892;SDS011;6514;48.606;9.222;2023-07-20T11:46:04;1.23;;;0.90;;
12892;SDS011;6514;48.606;9.222;2023-07-20T11:48:31;2.20;;;0.80;;
12892;SDS011;6514;48.606;9.222;2023-07-20T11:50:58;1.53;;;0.80;;
12892;SDS011;6514;48.606;9.222;2023-07-20T11:53:25;2.80;;;0.93;;
12892;SDS011;6514;48.606;9.222;2023-07-20T11:55:52;1.80;;;1.00;;
12892;SDS011;6514;48.606;9.222;2023-07-20T11:58:20;1.17;;;0.70;;
12892;SDS011;6514;48.606;9.222;2023-07-20T12:00:48;1.00;;;0.67;;
12892;SDS011;6514;48.606;9.222;2023-07-20T12:03:15;1.27;;;0.93;;
12892;SDS011;6514;48.606;9.222;2023-07-20T12:05:42;1.13;;;0.80;;
12892;SDS011;6514;48.606;9.222;2023-07-20T12:08:09;1.10;;;0.90;;
12892;SDS011;6514;48.606;9.222;2023-07-20T12:10:38;2.20;;;0.97;;
12892;SDS011;6514;48.606;9.222;2023-07-20T12:13:09;1.70;;;0.93;;
12892;SDS011;6514;48.606;9.222;2023-07-20T12:15:36;1.10;;;1.00;;
12892;SDS011;6514;48.606;9.222;2023-07-20T12:18:05;2.60;;;2.10;;
12892;SDS011;6514;48.606;9.222;2023-07-20T12:20:32;1.37;;;1.03;;
12892;SDS011;6514;48.606;9.222;2023-07-20T12:23:01;1.00;;;0.80;;
12892;SDS011;6514;48.606;9.222;2023-07-20T12:25:33;1.73;;;1.03;;
12892;SDS011;6514;48.606;9.222;2023-07-20T12:28:04;1.53;;;0.87;;
12892;SDS011;6514;48.606;9.222;2023-07-20T12:30:32;2.77;;;1.00;;
12892;SDS011;6514;48.606;9.222;2023-07-20T12:32:59;1.33;;;0.97;;
12892;SDS011;6514;48.606;9.222;2023-07-20T12:35:27;1.03;;;0.80;;
12892;SDS011;6514;48.606;9.222;2023-07-20T12:37:55;1.10;;;1.00;;
12892;SDS011;6514;48.606;9.222;2023-07-20T12:40:22;1.00;;;0.90;;
12892;SDS011;6514;48.606;9.222;2023-07-20T12:42:49;1.13;;;0.83;;
12892;SDS011;6514;48.606;9.222;2023-07-20T12:45:16;1.57;;;0.97;;
12892;SDS011;6514;48.606;9.222;2023-07-20T12:47:43;1.27;;;0.90;;
12892;SDS011;6514;48.606;9.222;2023-07-20T12:50:09;2.00;;;0.70;;
12892;SDS011;6514;48.606;9.222;2023-07-20T12:52:38;1.10;;;0.93;;
12892;SDS011;6514;48.606;9.222;2023-07-20T12:55:06;1.43;;;0.70;;
12892;SDS011;6514;48.606;9.222;2023-07-20T12:57:34;1.85;;;1.10;;
12892;SDS011;6514;48.606;9.222;2023-07-20T13:00:02;0.88;;;0.80;;
12892;SDS011;6514;48.606;9.222;2023-07-20T13:02:31;1.90;;;1.00;;
12892;SDS011;6514;48.606;9.222;2023-07-20T13:04:58;3.45;;;1.27;;
12892;SDS011;6514;48.606;9.222;2023-07-20T13:07:29;2.45;;;0.90;;
12892;SDS011;6514;48.606;9.222;2023-07-20T13:09:58;0.98;;;0.82;;
12892;SDS011;6514;48.606;9.222;2023-07-20T13:12:26;1.35;;;0.90;;
12892;SDS011;6514;48.606;9.222;2023-07-20T13:14:53;0.98;;;0.80;;
12892;SDS011;6514;48.606;9.222;2023-07-20T13:17:20;2.70;;;0.90;;
12892;SDS011;6514;48.606;9.222;2023-07-20T13:19:47;3.80;;;1.63;;
12892;SDS011;6514;48.606;9.222;2023-07-20T13:22:14;1.40;;;0.90;;
12892;SDS011;6514;48.606;9.222;2023-07-20T13:24:41;1.38;;;0.93;;
12892;SDS011;6514;48.606;9.222;2023-07-20T13:27:09;1.75;;;0.80;;
12892;SDS011;6514;48.606;9.222;2023-07-20T13:29:36;2.80;;;1.08;;
12892;SDS011;6514;48.606;9.222;2023-07-20T13:32:03;0.82;;;0.82;;
12892;SDS011;6514;48.606;9.222;2023-07-20T13:34:30;1.05;;;0.95;;
12892;SDS011;6514;48.606;9.222;2023-07-20T13:36:57;1.20;;;0.85;;
12892;SDS011;6514;48.606;9.222;2023-07-20T13:39:24;1.40;;;0.80;;
12892;SDS011;6514;48.606;9.222;2023-07-20T13:41:52;0.80;;;0.70;;
12892;SDS011;6514;48.606;9.222;2023-07-20T13:44:21;2.25;;;1.17;;
12892;SDS011;6514;48.606;9.222;2023-07-20T13:46:47;1.08;;;0.82;;
12892;SDS011;6514;48.606;9.222;2023-07-20T13:49:15;0.85;;;0.70;;
12892;SDS011;6514;48.606;9.222;2023-07-20T13:51:42;2.25;;;0.80;;
12892;SDS011;6514;48.606;9.222;2023-07-20T13:54:10;0.70;;;0.60;;
12892;SDS011;6514;48.606;9.222;2023-07-20T13:56:36;1.37;;;0.80;;
12892;SDS011;6514;48.606;9.222;2023-07-20T13:59:04;1.27;;;1.07;;
12892;SDS011;6514;48.606;9.222;2023-07-20T14:01:32;1.15;;;0.90;;
12892;SDS011;6514;48.606;9.222;2023-07-20T14:04:00;1.27;;;0.90;;
12892;SDS011;6514;48.606;9.222;2023-07-20T14:06:29;1.30;;;0.70;;
12892;SDS011;6514;48.606;9.222;2023-07-20T14:08:57;2.17;;;0.97;;
12892;SDS011;6514;48.606;9.222;2023-07-20T14:11:24;1.00;;;0.90;;
12892;SDS011;6514;48.606;9.222;2023-07-20T14:13:52;1.33;;;0.90;;
12892;SDS011;6514;48.606;9.222;2023-07-20T14:16:19;1.90;;;1.20;;
12892;SDS011;6514;48.606;9.222;2023-07-20T14:18:48;1.40;;;0.97;;
12892;SDS011;6514;48.606;9.222;2023-07-20T14:21:15;1.63;;;1.10;;
12892;SDS011;6514;48.606;9.222;2023-07-20T14:23:44;1.20;;;1.00;;
12892;SDS011;6514;48.606;9.222;2023-07-20T14:26:12;1.57;;;0.97;;
12892;SDS011;6514;48.606;9.222;2023-07-20T14:28:39;1.10;;;1.00;;
12892;SDS011;6514;48.606;9.222;2023-07-20T14:31:06;1.30;;;1.00;;
12892;SDS011;6514;48.606;9.222;2023-07-20T14:33:33;1.45;;;1.08;;
12892;SDS011;6514;48.606;9.222;2023-07-20T14:36:01;3.60;;;1.00;;
12892;SDS011;6514;48.606;9.222;2023-07-20T14:38:28;1.10;;;0.90;;
12892;SDS011;6514;48.606;9.222;2023-07-20T14:40:56;0.85;;;0.85;;
12892;SDS011;6514;48.606;9.222;2023-07-20T14:43:23;1.30;;;1.00;;
12892;SDS011;6514;48.606;9.222;2023-07-20T14:45:50;1.30;;;0.80;;
12892;SDS011;6514;48.606;9.222;2023-07-20T14:48:16;1.23;;;1.10;;
12892;SDS011;6514;48.606;9.222;2023-07-20T14:50:43;1.20;;;0.90;;
12892;SDS011;6514;48.606;9.222;2023-07-20T14:53:13;0.70;;;0.70;;
12892;SDS011;6514;48.606;9.222;2023-07-20T14:55:41;1.10;;;1.00;;
12892;SDS011;6514;48.606;9.222;2023-07-20T14:58:09;1.52;;;1.10;;
12892;SDS011;6514;48.606;9.222;2023-07-20T15:00:36;1.47;;;0.90;;
12892;SDS011;6514;48.606;9.222;2023-07-20T15:03:03;1.27;;;0.83;;
12892;SDS011;6514;48.606;9.222;2023-07-20T15:05:30;1.90;;;0.97;;
12892;SDS011;6514;48.606;9.222;2023-07-20T15:07:58;1.47;;;1.10;;
12892;SDS011;6514;48.606;9.222;2023-07-20T15:10:26;2.20;;;1.07;;